Time;durP1;ratioP1;P1;durP2;ratioP2;P2;SDS_P1;SDS_P2;PMS_P1;PMS_P2;Temp;Humidity;BMP_temperature;BMP_pressure;BME280_temperature;BME280_humidity;BME280_pressure;Samples;Min_cycle;Max_cycle;Signal;HPM_P1;HPM_P2
2023/08/27 00:00:28;;;;;;;10.90;9.93;;;12.80;99.90;;;;;;5040983;28;20044;-40
2023/08/27 00:02:55;;;;;;;10.95;9.85;;;12.80;99.90;;;;;;5039823;28;20043;-40
2023/08/27 00:05:21;;;;;;;12.15;10.70;;;12.90;99.90;;;;;;5047782;28;20125;-41
2023/08/27 00:07:46;;;;;;;13.27;12.10;;;12.80;99.90;;;;;;5038824;28;20520;-40
2023/08/27 00:10:12;;;;;;;12.07;11.07;;;12.80;99.90;;;;;;5044849;28;20497;-41
2023/08/27 00:12:38;;;;;;;13.00;11.88;;;12.80;99.90;;;;;;5050072;28;20062;-40
2023/08/27 00:15:04;;;;;;;12.68;11.45;;;12.80;99.90;;;;;;5050249;28;20089;-40
2023/08/27 00:17:30;;;;;;;12.88;11.68;;;12.80;99.90;;;;;;5050091;28;20048;-40
2023/08/27 00:19:58;;;;;;;12.25;11.18;;;12.80;99.90;;;;;;5048823;28;20492;-42
2023/08/27 00:22:23;;;;;;;12.13;11.02;;;12.70;99.90;;;;;;5045641;28;20044;-41
2023/08/27 00:24:49;;;;;;;12.50;11.30;;;12.80;99.90;;;;;;5043920;28;20145;-41
2023/08/27 00:27:15;;;;;;;11.95;10.95;;;12.80;99.90;;;;;;5047039;28;20572;-40
2023/08/27 00:29:41;;;;;;;13.25;11.93;;;12.80;99.90;;;;;;5049215;28;20120;-41
2023/08/27 00:32:07;;;;;;;13.63;12.32;;;12.80;99.90;;;;;;5045565;28;20110;-41
2023/08/27 00:34:35;;;;;;;13.43;12.18;;;12.80;99.90;;;;;;5053423;28;20075;-40
2023/08/27 00:37:01;;;;;;;13.77;12.40;;;12.80;99.90;;;;;;5037488;28;20048;-42
2023/08/27 00:39:29;;;;;;;13.40;12.20;;;12.70;99.90;;;;;;5039880;28;20132;-41
2023/08/27 00:41:55;;;;;;;14.95;13.65;;;12.70;99.90;;;;;;5042496;28;20099;-40
2023/08/27 00:44:21;;;;;;;14.48;12.98;;;12.70;99.90;;;;;;5044674;28;20041;-40
2023/08/27 00:46:48;;;;;;;16.35;14.65;;;12.70;99.90;;;;;;5028734;28;20329;-41
2023/08/27 00:49:15;;;;;;;14.65;13.35;;;12.70;99.90;;;;;;5034318;28;21976;-41
2023/08/27 00:51:42;;;;;;;16.38;14.93;;;12.70;99.90;;;;;;5044105;28;20529;-41
2023/08/27 00:54:08;;;;;;;16.45;15.05;;;12.70;99.90;;;;;;5039942;28;20044;-41
2023/08/27 00:56:34;;;;;;;17.50;15.85;;;12.70;99.90;;;;;;5056018;28;20494;-42
2023/08/27 00:59:01;;;;;;;16.92;15.40;;;12.70;99.90;;;;;;5051281;28;20406;-40
2023/08/27 01:01:28;;;;;;;15.38;13.98;;;12.80;99.90;;;;;;5051189;28;20079;-40
2023/08/27 01:03:53;;;;;;;15.95;14.50;;;12.80;99.90;;;;;;5051243;28;20037;-40
2023/08/27 01:06:19;;;;;;;15.82;14.32;;;12.80;99.90;;;;;;5045510;28;20044;-40
2023/08/27 01:08:54;;;;;;;15.95;14.63;;;12.80;99.90;;;;;;5050933;28;20135;-40
2023/08/27 01:11:38;;;;;;;17.98;16.10;;;12.80;99.90;;;;;;5034721;28;20228;-40
2023/08/27 01:14:07;;;;;;;16.00;14.35;;;12.80;99.90;;;;;;5070850;27;20040;-41
2023/08/27 01:16:37;;;;;;;15.77;14.38;;;12.90;99.90;;;;;;5034251;28;20934;-40
2023/08/27 01:19:13;;;;;;;16.20;14.80;;;12.80;99.90;;;;;;5030425;28;20056;-41
2023/08/27 01:21:39;;;;;;;16.77;15.15;;;12.80;99.90;;;;;;5031636;28;20041;-41
2023/08/27 01:24:06;;;;;;;16.73;15.07;;;12.80;99.90;;;;;;5035159;28;20076;-40
2023/08/27 01:26:35;;;;;;;16.52;15.13;;;12.80;99.90;;;;;;5034946;28;20441;-40
2023/08/27 01:29:15;;;;;;;16.60;15.10;;;12.80;99.90;;;;;;5030286;28;20044;-40
2023/08/27 01:31:53;;;;;;;16.00;14.57;;;12.80;99.90;;;;;;5026378;28;20048;-41
2023/08/27 01:34:21;;;;;;;16.25;14.65;;;12.80;99.90;;;;;;5033260;28;20302;-41
2023/08/27 01:36:48;;;;;;;14.77;13.48;;;12.70;99.90;;;;;;5033788;28;20076;-40
2023/08/27 01:39:14;;;;;;;16.55;15.05;;;12.80;99.90;;;;;;5034784;28;20053;-41
2023/08/27 01:41:39;;;;;;;13.70;12.43;;;12.80;99.90;;;;;;5034779;28;20589;-41
2023/08/27 01:44:05;;;;;;;14.75;13.52;;;12.80;99.90;;;;;;5034197;28;20047;-40
2023/08/27 01:46:31;;;;;;;13.95;12.68;;;12.80;99.90;;;;;;5035386;28;20367;-40
2023/08/27 01:48:56;;;;;;;14.02;12.70;;;12.80;99.90;;;;;;5031927;28;20045;-40
2023/08/27 01:51:22;;;;;;;14.10;12.80;;;12.80;99.90;;;;;;5035776;28;20048;-40
2023/08/27 01:53:48;;;;;;;16.70;15.20;;;12.80;99.90;;;;;;5067034;27;20048;-41
2023/08/27 01:56:13;;;;;;;15.13;13.68;;;12.80;99.90;;;;;;5036209;28;20219;-40
2023/08/27 01:58:40;;;;;;;13.27;12.07;;;12.90;99.90;;;;;;5042090;28;20636;-40
2023/08/27 02:01:06;;;;;;;14.15;12.80;;;12.90;99.90;;;;;;5032131;28;20475;-41
2023/08/27 02:03:32;;;;;;;13.90;12.80;;;12.80;99.90;;;;;;5037641;28;20108;-40
2023/08/27 02:05:57;;;;;;;13.48;12.10;;;12.90;99.90;;;;;;5032026;28;20040;-40
2023/08/27 02:08:23;;;;;;;13.82;12.52;;;12.90;99.90;;;;;;5035740;28;20121;-41
2023/08/27 02:10:49;;;;;;;14.60;13.18;;;12.90;99.90;;;;;;5034267;28;20049;-39
2023/08/27 02:13:15;;;;;;;13.52;12.40;;;13.00;99.90;;;;;;5041112;28;20040;-41
2023/08/27 02:15:43;;;;;;;14.38;13.18;;;13.00;99.90;;;;;;5034552;28;20115;-40
2023/08/27 02:18:08;;;;;;;15.45;13.98;;;13.00;99.90;;;;;;5040340;28;20498;-40
2023/08/27 02:20:34;;;;;;;15.50;14.05;;;13.00;99.90;;;;;;5029467;28;20147;-40
2023/08/27 02:23:00;;;;;;;15.80;14.30;;;12.90;99.90;;;;;;5034065;28;20417;-41
2023/08/27 02:25:25;;;;;;;14.77;13.38;;;12.90;99.90;;;;;;5032027;28;20396;-40
2023/08/27 02:27:51;;;;;;;15.25;13.68;;;12.90;99.90;;;;;;5043194;28;20082;-40
2023/08/27 02:30:17;;;;;;;14.13;12.80;;;12.90;99.90;;;;;;5036721;28;20573;-40
2023/08/27 02:32:42;;;;;;;14.55;13.32;;;12.80;99.90;;;;;;5037438;28;20055;-40
2023/08/27 02:35:08;;;;;;;14.98;13.32;;;12.90;99.90;;;;;;5030968;28;20084;-40
2023/08/27 02:37:34;;;;;;;16.20;14.75;;;12.90;99.90;;;;;;5035823;28;20041;-40
2023/08/27 02:40:00;;;;;;;16.52;14.88;;;12.80;99.90;;;;;;5031520;28;20740;-40
2023/08/27 02:42:25;;;;;;;16.77;15.27;;;12.80;99.90;;;;;;5034171;28;20083;-40
2023/08/27 02:44:51;;;;;;;15.65;14.20;;;12.80;99.90;;;;;;5033761;28;20509;-40
2023/08/27 02:47:16;;;;;;;15.32;13.93;;;12.70;99.90;;;;;;5030760;28;20045;-40
2023/08/27 02:49:42;;;;;;;16.63;14.93;;;12.80;99.90;;;;;;5045746;28;20079;-41
2023/08/27 02:52:08;;;;;;;16.92;15.32;;;12.70;99.90;;;;;;5045859;28;20044;-40
2023/08/27 02:54:33;;;;;;;15.75;14.25;;;12.70;99.90;;;;;;5041521;28;20044;-40
2023/08/27 02:56:59;;;;;;;17.90;16.10;;;12.70;99.90;;;;;;5052401;28;20047;-40
2023/08/27 02:59:24;;;;;;;17.17;15.35;;;12.60;99.90;;;;;;5051621;28;20040;-40
2023/08/27 03:01:53;;;;;;;18.17;16.48;;;12.70;99.90;;;;;;5037504;28;20544;-40
2023/08/27 03:04:19;;;;;;;17.73;16.10;;;12.70;99.90;;;;;;5043920;28;20359;-40
2023/08/27 03:06:45;;;;;;;18.08;16.38;;;12.70;99.90;;;;;;5025057;28;20041;-41
2023/08/27 03:09:10;;;;;;;19.27;17.27;;;12.80;99.90;;;;;;5045736;28;20052;-40
2023/08/27 03:11:36;;;;;;;20.45;17.02;;;12.70;99.90;;;;;;5050053;28;20060;-40
2023/08/27 03:14:02;;;;;;;19.27;17.40;;;12.80;99.90;;;;;;5036584;28;20102;-41
2023/08/27 03:16:28;;;;;;;20.17;18.17;;;12.80;99.90;;;;;;5030887;28;20044;-40
2023/08/27 03:18:54;;;;;;;20.45;18.42;;;12.80;99.90;;;;;;5025800;28;20041;-40
2023/08/27 03:21:23;;;;;;;20.05;18.08;;;12.90;99.90;;;;;;5029250;28;20225;-40
2023/08/27 03:23:48;;;;;;;22.02;19.13;;;12.90;99.90;;;;;;5032120;28;20131;-40
2023/08/27 03:26:14;;;;;;;20.02;17.92;;;12.90;99.90;;;;;;5046867;28;20414;-40
2023/08/27 03:28:39;;;;;;;20.35;17.95;;;12.90;99.90;;;;;;5052416;28;20693;-40
2023/08/27 03:31:05;;;;;;;20.65;17.88;;;13.00;99.90;;;;;;5054561;28;20573;-40
2023/08/27 03:33:31;;;;;;;19.83;17.98;;;13.00;99.90;;;;;;5035461;28;20076;-41
2023/08/27 03:35:58;;;;;;;21.17;18.08;;;13.00;99.90;;;;;;5028675;28;20510;-41
2023/08/27 03:38:24;;;;;;;19.50;17.45;;;13.00;99.90;;;;;;5030571;28;20060;-40
2023/08/27 03:40:52;;;;;;;20.00;18.20;;;13.00;99.90;;;;;;5036999;28;20045;-40
2023/08/27 03:43:18;;;;;;;20.27;18.35;;;13.10;99.90;;;;;;5030350;28;20047;-40
2023/08/27 03:45:44;;;;;;;19.45;17.65;;;13.10;99.90;;;;;;5062507;27;20361;-40
2023/08/27 03:48:10;;;;;;;19.42;17.63;;;13.10;99.90;;;;;;5029305;28;20477;-40
2023/08/27 03:50:36;;;;;;;19.52;17.73;;;13.20;99.90;;;;;;5037941;28;20786;-40
2023/08/27 03:53:05;;;;;;;19.02;17.30;;;13.10;99.90;;;;;;5031540;28;20087;-40
2023/08/27 03:55:38;;;;;;;18.77;17.02;;;13.10;99.90;;;;;;5034997;28;20047;-40
2023/08/27 03:58:05;;;;;;;20.73;18.73;;;13.20;99.90;;;;;;5067664;28;20049;-40
2023/08/27 04:00:32;;;;;;;17.60;15.90;;;13.10;99.90;;;;;;5027912;28;21051;-41
2023/08/27 04:02:58;;;;;;;17.50;15.57;;;13.10;99.90;;;;;;5035743;28;20049;-40
2023/08/27 04:05:24;;;;;;;18.65;16.70;;;13.20;99.90;;;;;;5066613;28;20048;-40
2023/08/27 04:07:49;;;;;;;18.48;16.77;;;13.20;99.90;;;;;;5030688;28;20060;-40
2023/08/27 04:10:15;;;;;;;19.15;17.23;;;13.20;99.90;;;;;;5037278;28;20438;-40
2023/08/27 04:12:41;;;;;;;18.42;16.48;;;13.10;99.90;;;;;;5042979;28;20068;-40
2023/08/27 04:15:07;;;;;;;16.27;14.77;;;13.20;99.90;;;;;;5038672;28;20048;-41
2023/08/27 04:17:33;;;;;;;18.42;16.08;;;13.10;99.90;;;;;;5034453;28;20558;-40
2023/08/27 04:19:59;;;;;;;17.30;15.32;;;13.20;99.90;;;;;;5034457;28;20040;-40
2023/08/27 04:22:24;;;;;;;17.85;16.30;;;13.00;99.90;;;;;;5062788;28;20060;-41
2023/08/27 04:24:50;;;;;;;17.70;14.77;;;13.00;99.90;;;;;;5065082;28;20040;-40
2023/08/27 04:27:16;;;;;;;15.85;13.98;;;12.90;99.90;;;;;;5036980;28;20166;-40
2023/08/27 04:29:43;;;;;;;17.00;13.75;;;12.90;99.90;;;;;;5053065;28;20041;-41
2023/08/27 04:32:09;;;;;;;15.90;14.27;;;12.90;99.90;;;;;;5066431;28;20476;-40
2023/08/27 04:34:34;;;;;;;16.80;14.35;;;12.90;99.90;;;;;;5038403;28;20043;-41
2023/08/27 04:37:03;;;;;;;15.13;13.73;;;12.80;99.90;;;;;;5036308;28;20068;-40
2023/08/27 04:39:29;;;;;;;15.73;14.07;;;12.80;99.90;;;;;;5079067;27;20082;-40
2023/08/27 04:41:55;;;;;;;14.85;13.55;;;12.80;99.90;;;;;;5037038;28;20118;-40
2023/08/27 04:44:21;;;;;;;19.05;15.68;;;12.80;99.90;;;;;;5041392;28;20044;-40
2023/08/27 04:46:47;;;;;;;15.95;14.45;;;12.90;99.90;;;;;;5036082;28;20036;-40
2023/08/27 04:49:13;;;;;;;15.27;13.68;;;12.90;99.90;;;;;;5039288;28;20060;-40
2023/08/27 04:51:38;;;;;;;16.80;15.10;;;12.90;99.90;;;;;;5032092;28;20064;-40
2023/08/27 04:54:04;;;;;;;16.35;14.75;;;13.10;99.90;;;;;;5033571;28;20365;-41
2023/08/27 04:56:30;;;;;;;17.08;15.48;;;13.10;99.90;;;;;;5053695;28;20043;-40
2023/08/27 04:58:56;;;;;;;20.00;14.77;;;13.20;99.90;;;;;;5047998;28;20122;-40
2023/08/27 05:01:21;;;;;;;15.43;14.02;;;13.30;99.90;;;;;;5049485;28;20056;-40
2023/08/27 05:03:47;;;;;;;16.05;14.52;;;13.30;99.90;;;;;;5038580;28;20048;-40
2023/08/27 05:06:12;;;;;;;15.68;14.18;;;13.40;99.90;;;;;;5033879;28;20083;-40
2023/08/27 05:08:39;;;;;;;16.33;14.40;;;13.40;99.90;;;;;;5033127;28;20053;-40
2023/08/27 05:11:05;;;;;;;17.13;14.15;;;13.60;99.90;;;;;;5035667;28;20075;-40
2023/08/27 05:13:30;;;;;;;15.38;13.98;;;13.60;99.90;;;;;;5042013;28;20485;-40
2023/08/27 05:15:56;;;;;;;15.45;13.95;;;13.70;99.90;;;;;;5036616;28;20129;-40
2023/08/27 05:18:22;;;;;;;15.85;14.18;;;13.80;99.90;;;;;;5035462;28;20045;-40
2023/08/27 05:20:47;;;;;;;15.98;14.35;;;13.90;99.90;;;;;;5038052;28;20052;-41
2023/08/27 05:23:13;;;;;;;18.08;15.30;;;14.00;99.90;;;;;;5046359;28;20545;-40
2023/08/27 05:25:38;;;;;;;16.85;13.60;;;14.00;99.90;;;;;;5041160;28;20044;-41
2023/08/27 05:28:04;;;;;;;14.38;11.70;;;14.10;99.90;;;;;;5040200;28;20037;-41
2023/08/27 05:30:30;;;;;;;16.45;13.30;;;14.00;99.90;;;;;;5033642;28;20037;-40
2023/08/27 05:32:56;;;;;;;18.08;12.77;;;13.90;99.90;;;;;;5041517;28;20136;-41
2023/08/27 05:35:24;;;;;;;15.05;12.23;;;13.90;99.90;;;;;;5042472;28;20139;-40
2023/08/27 05:37:50;;;;;;;14.77;12.85;;;13.90;99.90;;;;;;5034882;28;20080;-41
2023/08/27 05:40:15;;;;;;;18.48;13.60;;;13.90;99.90;;;;;;5035928;28;20052;-40
2023/08/27 05:42:41;;;;;;;15.00;13.45;;;13.80;99.90;;;;;;5033450;28;20044;-41
2023/08/27 05:45:07;;;;;;;17.08;14.68;;;13.80;99.90;;;;;;5042021;28;20395;-40
2023/08/27 05:47:33;;;;;;;17.27;14.52;;;13.90;99.90;;;;;;5030660;28;20040;-41
2023/08/27 05:49:59;;;;;;;19.60;14.45;;;13.80;99.90;;;;;;5043748;28;20178;-41
2023/08/27 05:52:24;;;;;;;15.10;13.27;;;13.80;99.90;;;;;;5036282;28;20101;-40
2023/08/27 05:54:50;;;;;;;18.13;14.57;;;13.90;99.90;;;;;;5033618;28;20259;-41
2023/08/27 05:57:16;;;;;;;17.08;15.18;;;13.90;99.90;;;;;;5038066;28;20123;-40
2023/08/27 05:59:42;;;;;;;16.80;14.98;;;13.90;99.90;;;;;;5036159;28;20090;-41
2023/08/27 06:02:10;;;;;;;21.25;15.45;;;14.00;99.90;;;;;;5039738;28;20048;-40
2023/08/27 06:04:36;;;;;;;24.40;16.25;;;14.00;99.90;;;;;;5067407;27;20055;-40
2023/08/27 06:07:02;;;;;;;22.92;16.77;;;13.90;99.90;;;;;;5036558;28;20044;-40
2023/08/27 06:09:27;;;;;;;19.95;16.52;;;14.00;99.90;;;;;;5036109;28;20490;-40
2023/08/27 06:11:53;;;;;;;22.25;17.08;;;13.90;99.90;;;;;;5038988;28;20755;-40
2023/08/27 06:14:19;;;;;;;22.42;17.35;;;14.10;99.90;;;;;;5041452;28;20138;-40
2023/08/27 06:16:44;;;;;;;23.13;17.23;;;14.10;99.90;;;;;;5040554;28;20052;-40
2023/08/27 06:19:10;;;;;;;22.80;17.33;;;14.10;99.90;;;;;;5018778;28;20406;-40
2023/08/27 06:21:36;;;;;;;21.45;17.88;;;14.10;99.90;;;;;;5035013;28;20124;-40
2023/08/27 06:24:02;;;;;;;22.75;17.88;;;14.20;99.90;;;;;;5037098;28;20048;-40
2023/08/27 06:26:27;;;;;;;18.80;15.80;;;14.20;99.90;;;;;;5044260;28;20041;-40
2023/08/27 06:28:53;;;;;;;21.95;16.95;;;14.20;99.90;;;;;;5035573;28;20136;-40
2023/08/27 06:31:19;;;;;;;23.35;17.10;;;14.30;99.90;;;;;;5048505;28;20073;-41
2023/08/27 06:33:44;;;;;;;21.38;18.25;;;14.30;99.90;;;;;;5036264;28;20399;-40
2023/08/27 06:36:10;;;;;;;20.95;18.17;;;14.30;99.90;;;;;;5033759;28;20120;-41
2023/08/27 06:38:36;;;;;;;23.70;17.58;;;14.30;99.90;;;;;;5033718;28;20116;-40
2023/08/27 06:41:01;;;;;;;24.25;18.52;;;14.40;99.90;;;;;;5040842;28;20634;-41
2023/08/27 06:43:27;;;;;;;21.67;17.73;;;14.40;99.90;;;;;;5035627;28;20053;-41
2023/08/27 06:45:53;;;;;;;26.55;19.23;;;14.50;99.90;;;;;;5032776;28;20052;-40
2023/08/27 06:48:18;;;;;;;19.17;17.25;;;14.50;99.90;;;;;;5040922;28;20480;-40
2023/08/27 06:50:44;;;;;;;20.10;17.17;;;14.60;99.90;;;;;;5037839;28;20311;-41
2023/08/27 06:53:10;;;;;;;19.77;16.58;;;14.60;99.90;;;;;;5037001;28;20041;-41
2023/08/27 06:55:36;;;;;;;18.63;16.30;;;14.70;99.90;;;;;;5035003;28;20052;-41
2023/08/27 06:58:02;;;;;;;22.80;16.75;;;14.70;99.90;;;;;;5067314;28;20356;-41
2023/08/27 07:00:28;;;;;;;19.45;15.90;;;14.80;99.90;;;;;;5038269;28;20041;-41
2023/08/27 07:02:54;;;;;;;21.58;17.05;;;14.80;99.90;;;;;;5045330;28;20051;-41
2023/08/27 07:05:20;;;;;;;18.55;15.23;;;14.80;99.90;;;;;;5032739;28;20475;-40
2023/08/27 07:07:46;;;;;;;18.05;15.77;;;14.90;99.90;;;;;;5038696;28;20037;-41
2023/08/27 07:10:14;;;;;;;18.70;15.40;;;15.00;99.90;;;;;;5038636;28;20051;-41
2023/08/27 07:12:40;;;;;;;20.88;15.10;;;15.00;99.90;;;;;;5030411;28;20041;-41
2023/08/27 07:15:07;;;;;;;15.60;13.55;;;15.00;99.90;;;;;;5060362;27;20562;-41
2023/08/27 07:17:33;;;;;;;18.55;15.00;;;15.00;99.90;;;;;;5022885;28;20036;-41
2023/08/27 07:20:07;;;;;;;18.25;15.73;;;15.00;99.90;;;;;;5022703;28;20106;-41
2023/08/27 07:22:33;;;;;;;17.80;15.88;;;15.00;99.90;;;;;;5027851;28;20302;-41
2023/08/27 07:24:59;;;;;;;18.92;15.05;;;15.00;99.90;;;;;;5030482;28;20068;-41
2023/08/27 07:27:25;;;;;;;18.15;15.05;;;15.10;99.90;;;;;;5034519;28;20051;-41
2023/08/27 07:29:51;;;;;;;15.07;13.57;;;15.70;99.90;;;;;;5035710;28;20041;-41
2023/08/27 07:32:16;;;;;;;14.00;12.25;;;16.40;99.90;;;;;;5040782;28;20052;-41
2023/08/27 07:34:42;;;;;;;11.55;10.23;;;16.90;99.90;;;;;;5036726;28;20037;-42
2023/08/27 07:37:08;;;;;;;12.23;9.25;;;17.20;99.90;;;;;;5058107;28;20387;-41
2023/08/27 07:39:34;;;;;;;11.73;9.90;;;17.40;99.90;;;;;;5061108;27;20067;-41
2023/08/27 07:41:59;;;;;;;12.43;9.52;;;17.50;99.90;;;;;;5028747;28;20478;-41
2023/08/27 07:44:25;;;;;;;11.63;8.93;;;17.70;99.90;;;;;;5032888;28;20518;-41
2023/08/27 07:46:51;;;;;;;10.57;7.68;;;18.00;99.90;;;;;;5035162;28;20041;-41
2023/08/27 07:49:17;;;;;;;8.68;7.28;;;17.80;99.90;;;;;;5036600;28;20048;-43
2023/08/27 07:51:42;;;;;;;9.73;7.60;;;17.90;99.90;;;;;;5028800;28;20045;-41
2023/08/27 07:54:08;;;;;;;9.50;7.28;;;17.90;99.90;;;;;;5035796;28;20072;-42
2023/08/27 07:56:34;;;;;;;7.20;6.50;;;17.90;99.90;;;;;;5033617;28;20033;-41
2023/08/27 07:58:59;;;;;;;9.48;6.32;;;18.00;99.90;;;;;;5039677;28;20522;-41
2023/08/27 08:01:26;;;;;;;7.03;6.32;;;18.10;99.90;;;;;;5032463;28;20470;-41
2023/08/27 08:03:52;;;;;;;6.22;5.47;;;18.30;99.90;;;;;;5030495;28;20069;-41
2023/08/27 08:06:17;;;;;;;6.53;5.47;;;18.30;99.90;;;;;;5037281;28;20040;-43
2023/08/27 08:08:43;;;;;;;7.35;5.93;;;18.40;99.90;;;;;;5033481;28;21676;-42
2023/08/27 08:11:09;;;;;;;11.98;5.90;;;18.40;99.90;;;;;;5034337;28;20048;-41
2023/08/27 08:13:36;;;;;;;7.32;4.72;;;18.60;99.90;;;;;;5074431;27;20904;-41
2023/08/27 08:16:02;;;;;;;5.78;4.28;;;18.70;99.90;;;;;;5041293;28;20084;-42
2023/08/27 08:18:28;;;;;;;5.65;3.83;;;18.60;99.90;;;;;;5035929;28;20130;-41
2023/08/27 08:20:56;;;;;;;5.57;3.95;;;18.70;99.90;;;;;;5034050;28;20059;-42
2023/08/27 08:23:22;;;;;;;4.47;3.20;;;18.70;99.90;;;;;;5036356;28;21081;-42
2023/08/27 08:25:51;;;;;;;4.28;3.40;;;18.70;99.90;;;;;;5041917;28;20097;-42
2023/08/27 08:28:16;;;;;;;3.90;3.05;;;18.60;99.90;;;;;;5032387;28;20552;-41
2023/08/27 08:30:48;;;;;;;4.25;3.78;;;18.70;99.90;;;;;;5036997;28;20032;-41
2023/08/27 08:33:14;;;;;;;4.10;3.15;;;18.60;99.90;;;;;;5037344;28;20052;-41
2023/08/27 08:35:40;;;;;;;6.43;3.10;;;18.70;99.90;;;;;;5042112;28;20469;-43
2023/08/27 08:38:06;;;;;;;4.75;2.92;;;18.60;99.90;;;;;;5046779;28;20086;-42
2023/08/27 08:40:42;;;;;;;4.35;3.20;;;18.70;99.90;;;;;;5036904;28;20415;-42
2023/08/27 08:43:10;;;;;;;5.10;3.65;;;18.80;99.90;;;;;;5039270;28;20495;-42
2023/08/27 08:45:49;;;;;;;4.45;3.22;;;19.00;99.90;;;;;;5038753;28;20486;-42
2023/08/27 08:48:17;;;;;;;5.25;3.35;;;19.00;99.90;;;;;;5044341;28;20592;-42
2023/08/27 08:50:44;;;;;;;8.90;4.30;;;19.10;99.90;;;;;;5046293;28;20041;-42
2023/08/27 08:53:23;;;;;;;7.22;4.10;;;19.30;99.90;;;;;;5033650;28;20051;-42
2023/08/27 08:55:56;;;;;;;4.28;3.22;;;19.50;99.90;;;;;;5037186;28;20071;-42
2023/08/27 08:58:27;;;;;;;4.03;2.60;;;19.70;99.90;;;;;;5037848;28;20138;-41
2023/08/27 09:00:55;;;;;;;7.30;3.25;;;19.80;99.90;;;;;;5068879;27;20415;-42
2023/08/27 09:03:22;;;;;;;3.92;2.75;;;19.40;99.90;;;;;;5032132;28;20045;-42
2023/08/27 09:05:50;;;;;;;4.10;2.67;;;19.20;99.90;;;;;;5036943;28;20056;-42
2023/08/27 09:08:18;;;;;;;5.57;3.03;;;19.20;99.90;;;;;;5036382;28;20041;-42
2023/08/27 09:10:43;;;;;;;3.38;2.65;;;19.20;99.90;;;;;;5037289;28;20109;-41
2023/08/27 09:13:10;;;;;;;4.95;2.70;;;19.30;99.90;;;;;;5037979;28;20052;-42
2023/08/27 09:15:36;;;;;;;4.22;2.72;;;19.50;99.90;;;;;;5034938;28;20132;-41
2023/08/27 09:18:02;;;;;;;3.53;2.70;;;19.80;99.90;;;;;;5041962;28;20044;-43
2023/08/27 09:20:28;;;;;;;2.70;2.25;;;19.80;99.90;;;;;;5046541;28;20047;-42
2023/08/27 09:22:54;;;;;;;3.80;2.90;;;19.80;99.90;;;;;;5039935;28;20052;-42
2023/08/27 09:25:19;;;;;;;3.13;2.83;;;19.80;99.90;;;;;;5038331;28;20045;-41
2023/08/27 09:27:46;;;;;;;5.25;3.10;;;19.70;99.90;;;;;;5064925;27;20824;-42
2023/08/27 09:30:12;;;;;;;3.60;2.70;;;19.80;99.90;;;;;;5037242;28;20048;-42
2023/08/27 09:32:38;;;;;;;4.32;3.00;;;19.60;99.90;;;;;;5037038;28;20118;-42
2023/08/27 09:35:05;;;;;;;5.75;2.88;;;19.50;99.90;;;;;;5039175;28;20479;-43
2023/08/27 09:37:39;;;;;;;3.45;2.88;;;19.60;99.90;;;;;;5049030;28;20291;-46
2023/08/27 09:40:09;;;;;;;4.28;2.85;;;19.50;99.90;;;;;;5039016;28;20479;-42
2023/08/27 09:42:36;;;;;;;4.28;3.08;;;19.50;99.90;;;;;;5046505;28;20039;-43
2023/08/27 09:45:02;;;;;;;3.28;2.65;;;19.40;99.90;;;;;;5040904;28;21616;-43
2023/08/27 09:47:33;;;;;;;3.28;2.35;;;19.30;99.90;;;;;;5047155;28;20040;-42
2023/08/27 09:50:14;;;;;;;3.03;2.60;;;19.40;99.90;;;;;;5043363;28;20226;-43
2023/08/27 09:52:40;;;;;;;3.47;2.72;;;19.40;99.90;;;;;;5045005;28;20248;-42
2023/08/27 09:55:13;;;;;;;4.35;3.50;;;19.70;99.90;;;;;;5037112;28;20051;-42
2023/08/27 09:57:39;;;;;;;3.58;3.17;;;19.70;99.90;;;;;;5042661;28;20832;-42
2023/08/27 10:00:09;;;;;;;3.85;3.45;;;19.20;99.90;;;;;;5039479;28;20053;-42
2023/08/27 10:02:35;;;;;;;4.80;3.38;;;19.00;99.90;;;;;;5072923;27;20064;-42
2023/08/27 10:05:01;;;;;;;6.20;4.10;;;18.90;99.90;;;;;;5037836;28;20037;-41
2023/08/27 10:07:27;;;;;;;3.53;3.22;;;18.80;99.90;;;;;;5051818;28;20425;-41
2023/08/27 10:09:54;;;;;;;4.22;3.67;;;19.00;99.90;;;;;;5074022;27;20534;-42
2023/08/27 10:12:21;;;;;;;4.47;3.40;;;19.10;99.90;;;;;;5053609;28;20176;-41
2023/08/27 10:14:47;;;;;;;7.70;4.20;;;19.10;99.90;;;;;;5043415;28;20603;-41
2023/08/27 10:17:15;;;;;;;4.00;3.70;;;19.10;99.90;;;;;;5043964;28;20048;-44
2023/08/27 10:19:41;;;;;;;5.32;3.33;;;19.20;99.90;;;;;;5035346;28;20063;-42
2023/08/27 10:22:07;;;;;;;4.85;4.25;;;19.30;99.90;;;;;;5044455;28;20483;-42
2023/08/27 10:24:34;;;;;;;6.85;4.65;;;19.50;99.90;;;;;;5039114;28;20053;-42
2023/08/27 10:27:01;;;;;;;4.95;3.63;;;19.70;99.90;;;;;;5051866;28;20076;-44
2023/08/27 10:29:28;;;;;;;4.05;3.13;;;20.10;99.90;;;;;;5055507;28;20049;-41
2023/08/27 10:31:54;;;;;;;5.20;3.13;;;20.40;99.90;;;;;;5039573;28;20048;-42
2023/08/27 10:34:23;;;;;;;2.70;2.05;;;20.80;99.90;;;;;;5036646;28;20045;-42
2023/08/27 10:36:55;;;;;;;3.42;2.45;;;20.80;99.90;;;;;;5044376;28;20734;-43
2023/08/27 10:39:23;;;;;;;6.07;4.30;;;20.60;99.90;;;;;;5044274;28;20481;-42
2023/08/27 10:41:49;;;;;;;4.55;4.15;;;20.50;99.90;;;;;;5047655;28;20101;-42
2023/08/27 10:44:21;;;;;;;6.75;3.80;;;20.40;99.90;;;;;;5047976;28;20044;-42
2023/08/27 10:47:17;;;;;;;4.47;3.92;;;20.20;99.90;;;;;;5038174;28;20863;-41
2023/08/27 10:49:48;;;;;;;4.20;3.80;;;20.20;99.90;;;;;;5037487;28;20112;-43
2023/08/27 10:52:16;;;;;;;4.32;3.55;;;20.30;99.90;;;;;;5040172;28;20045;-42
2023/08/27 10:54:42;;;;;;;4.85;4.30;;;20.30;99.90;;;;;;5041617;28;20891;-42
2023/08/27 10:57:21;;;;;;;4.47;4.00;;;20.10;99.90;;;;;;5037542;28;20044;-43
2023/08/27 10:59:47;;;;;;;6.10;4.07;;;19.90;99.90;;;;;;5042801;28;20048;-42
2023/08/27 11:02:15;;;;;;;5.07;4.43;;;20.00;99.90;;;;;;5051628;28;20334;-42
2023/08/27 11:04:42;;;;;;;5.03;4.57;;;20.00;99.90;;;;;;5053011;28;20036;-44
2023/08/27 11:07:14;;;;;;;5.47;4.93;;;20.00;99.90;;;;;;5051772;28;20075;-42
2023/08/27 11:09:57;;;;;;;5.97;5.30;;;19.90;99.90;;;;;;5044064;28;20040;-42
2023/08/27 11:12:35;;;;;;;6.70;5.85;;;19.90;99.90;;;;;;5045588;28;20075;-42
2023/08/27 11:15:14;;;;;;;6.18;5.18;;;19.90;99.90;;;;;;5052035;28;20051;-43
2023/08/27 11:17:41;;;;;;;8.15;4.80;;;19.90;99.90;;;;;;5039597;28;20143;-42
2023/08/27 11:20:24;;;;;;;10.38;5.57;;;19.80;99.90;;;;;;5017470;28;20044;-43
2023/08/27 11:22:57;;;;;;;6.90;5.20;;;19.60;99.90;;;;;;5024969;28;20542;-42
2023/08/27 11:25:30;;;;;;;6.57;4.82;;;19.50;99.90;;;;;;5024540;28;20357;-42
2023/08/27 11:27:58;;;;;;;5.93;5.20;;;19.20;99.90;;;;;;5040875;28;20391;-42
2023/08/27 11:30:25;;;;;;;7.80;5.60;;;18.90;99.90;;;;;;5034159;28;20123;-42
2023/08/27 11:32:51;;;;;;;7.28;5.10;;;18.80;99.90;;;;;;5035612;28;20177;-42
2023/08/27 11:35:28;;;;;;;4.47;3.40;;;18.70;99.90;;;;;;5032666;28;20125;-41
2023/08/27 11:37:54;;;;;;;2.53;1.60;;;18.50;99.90;;;;;;5036327;28;20378;-42
2023/08/27 11:40:22;;;;;;;5.63;1.67;;;18.20;99.90;;;;;;5031588;28;20052;-42
2023/08/27 11:42:52;;;;;;;2.47;1.00;;;17.90;99.90;;;;;;5031737;28;20052;-42
2023/08/27 11:45:17;;;;;;;3.80;1.05;;;17.70;99.90;;;;;;5029671;28;20084;-42
2023/08/27 11:47:44;;;;;;;2.28;1.15;;;17.60;99.90;;;;;;5028930;28;20054;-43
2023/08/27 11:50:10;;;;;;;3.15;1.20;;;17.50;99.90;;;;;;5022862;28;20808;-41
2023/08/27 11:52:36;;;;;;;1.85;1.00;;;17.40;99.90;;;;;;5046717;28;20544;-42
2023/08/27 11:55:03;;;;;;;2.60;1.10;;;17.30;99.90;;;;;;5031686;28;20055;-42
2023/08/27 11:57:29;;;;;;;2.53;1.10;;;17.10;99.90;;;;;;5033513;28;20033;-41
2023/08/27 11:59:55;;;;;;;1.35;0.90;;;17.10;99.90;;;;;;5041378;28;20055;-43
2023/08/27 12:02:22;;;;;;;2.63;1.10;;;17.00;99.90;;;;;;5037554;28;20483;-41
2023/08/27 12:04:48;;;;;;;2.55;0.90;;;17.00;99.90;;;;;;5037219;28;20056;-43
2023/08/27 12:07:27;;;;;;;2.75;1.10;;;17.00;99.90;;;;;;5032905;28;20037;-41
2023/08/27 12:09:53;;;;;;;2.78;1.02;;;17.00;99.90;;;;;;5037569;28;20514;-45
2023/08/27 12:12:19;;;;;;;2.97;0.90;;;17.10;99.90;;;;;;5035111;28;20072;-43
2023/08/27 12:14:51;;;;;;;5.18;1.20;;;17.10;99.90;;;;;;5034422;28;20045;-43
2023/08/27 12:17:20;;;;;;;8.82;1.40;;;17.40;99.90;;;;;;5032375;28;20055;-42
2023/08/27 12:19:47;;;;;;;2.25;1.27;;;17.70;99.90;;;;;;5066677;28;20049;-42
2023/08/27 12:22:17;;;;;;;2.75;1.05;;;18.00;99.90;;;;;;5030733;28;20041;-44
2023/08/27 12:24:44;;;;;;;3.78;0.80;;;18.20;99.90;;;;;;5035013;28;20076;-42
2023/08/27 12:27:17;;;;;;;2.70;0.82;;;18.50;99.90;;;;;;5033906;28;20492;-42
2023/08/27 12:29:51;;;;;;;2.60;1.30;;;18.60;99.90;;;;;;5032870;28;20060;-42
2023/08/27 12:32:19;;;;;;;3.97;0.95;;;18.70;99.90;;;;;;5026423;28;20060;-41
2023/08/27 12:34:47;;;;;;;3.28;0.90;;;18.60;99.90;;;;;;5062158;28;20198;-42